Time;durP1;ratioP1;P1;durP2;ratioP2;P2;SDS_P1;SDS_P2;PMS_P1;PMS_P2;Temp;Humidity;BMP_temperature;BMP_pressure;BME280_temperature;BME280_humidity;BME280_pressure;Samples;Min_cycle;Max_cycle;Signal;HPM_P1;HPM_P2
2022/05/13 00:01:43;;;;;;;4.77;2.27;;;19.00;68.70;;;;;;5059053;28;20561;-75
2022/05/13 00:04:12;;;;;;;5.87;2.10;;;19.00;68.70;;;;;;5081686;28;21018;-76
2022/05/13 00:06:40;;;;;;;7.13;2.30;;;19.00;68.70;;;;;;5067172;28;20500;-76
2022/05/13 00:09:08;;;;;;;7.50;2.20;;;18.90;68.80;;;;;;5067600;28;20480;-77
2022/05/13 00:11:36;;;;;;;5.27;2.17;;;18.90;68.80;;;;;;5062423;28;20512;-76
2022/05/13 00:14:07;;;;;;;5.03;2.00;;;18.80;68.90;;;;;;5067830;28;20561;-77
2022/05/13 00:16:36;;;;;;;4.47;1.93;;;18.80;68.90;;;;;;5063532;28;20486;-74
2022/05/13 00:19:05;;;;;;;4.50;1.80;;;18.80;69.00;;;;;;5065762;28;20527;-75
2022/05/13 00:21:33;;;;;;;5.97;2.10;;;18.70;69.10;;;;;;5068208;28;20458;-75
2022/05/13 00:24:01;;;;;;;5.63;1.70;;;18.70;69.10;;;;;;5069049;28;20485;-74
2022/05/13 00:26:29;;;;;;;4.77;2.20;;;18.70;69.20;;;;;;5068196;28;20573;-74
2022/05/13 00:28:57;;;;;;;5.13;1.70;;;18.70;69.20;;;;;;5065643;28;20435;-74
2022/05/13 00:31:26;;;;;;;5.97;2.23;;;18.70;69.20;;;;;;5064191;28;21129;-74
2022/05/13 00:33:54;;;;;;;3.93;1.87;;;18.70;69.10;;;;;;5064476;28;20474;-75
2022/05/13 00:36:22;;;;;;;5.53;1.93;;;18.60;69.10;;;;;;5063514;28;20486;-74
2022/05/13 00:38:50;;;;;;;7.23;2.47;;;18.60;69.10;;;;;;5066342;28;20893;-77
2022/05/13 00:41:19;;;;;;;4.53;2.07;;;18.60;69.10;;;;;;5066893;28;20493;-75
2022/05/13 00:43:51;;;;;;;6.53;2.10;;;18.60;69.10;;;;;;5067147;28;20473;-75
2022/05/13 00:46:19;;;;;;;4.93;2.03;;;18.60;69.10;;;;;;5066497;28;20478;-75
2022/05/13 00:48:49;;;;;;;6.30;2.40;;;18.60;69.00;;;;;;5066456;28;21031;-74
2022/05/13 00:51:19;;;;;;;9.03;2.10;;;18.50;69.00;;;;;;5062718;28;20504;-75
2022/05/13 00:53:48;;;;;;;5.70;2.53;;;18.50;69.00;;;;;;5064940;28;20481;-74
2022/05/13 00:56:19;;;;;;;4.53;2.13;;;18.50;69.00;;;;;;5066468;28;20443;-76
2022/05/13 00:58:50;;;;;;;6.17;2.60;;;18.50;69.00;;;;;;5067002;28;20474;-74
2022/05/13 01:01:19;;;;;;;7.30;2.30;;;18.50;69.00;;;;;;5067194;28;20492;-74
2022/05/13 01:03:50;;;;;;;9.27;2.40;;;18.50;69.00;;;;;;5066232;28;20466;-77
2022/05/13 01:06:22;;;;;;;4.17;1.53;;;18.40;68.90;;;;;;5064884;28;20473;-77
2022/05/13 01:08:50;;;;;;;6.10;2.50;;;18.40;69.00;;;;;;5064747;28;21327;-74
2022/05/13 01:11:23;;;;;;;7.73;2.70;;;18.40;68.90;;;;;;5065331;28;20446;-74
2022/05/13 01:13:57;;;;;;;5.23;2.23;;;18.40;68.90;;;;;;5067310;28;20560;-74
2022/05/13 01:16:25;;;;;;;5.47;2.07;;;18.40;68.90;;;;;;5067001;28;20473;-75
2022/05/13 01:18:54;;;;;;;4.83;1.97;;;18.40;68.80;;;;;;5066585;28;20484;-74
2022/05/13 01:21:29;;;;;;;5.20;1.97;;;18.40;68.80;;;;;;5064936;28;20493;-75
2022/05/13 01:23:58;;;;;;;6.80;2.00;;;18.30;68.80;;;;;;5059739;28;20489;-74
2022/05/13 01:26:29;;;;;;;4.30;2.20;;;18.30;68.80;;;;;;5068463;28;20924;-74
2022/05/13 01:28:58;;;;;;;5.90;2.27;;;18.30;68.70;;;;;;5065474;28;20454;-74
2022/05/13 01:31:29;;;;;;;6.47;2.30;;;18.30;68.70;;;;;;5063183;28;20484;-75
2022/05/13 01:33:59;;;;;;;5.70;2.10;;;18.20;68.70;;;;;;5067242;28;20898;-74
2022/05/13 01:36:27;;;;;;;8.37;2.17;;;18.20;68.80;;;;;;5064196;28;20481;-74
2022/05/13 01:38:56;;;;;;;5.60;2.00;;;18.20;68.80;;;;;;5066914;28;20501;-74
2022/05/13 01:41:26;;;;;;;5.53;1.97;;;18.20;68.80;;;;;;5065307;28;20470;-74
2022/05/13 01:43:54;;;;;;;7.63;2.40;;;18.20;68.70;;;;;;5065622;28;20490;-74
2022/05/13 01:46:23;;;;;;;5.77;2.20;;;18.10;68.70;;;;;;5065450;28;20465;-74
2022/05/13 01:48:58;;;;;;;7.90;2.10;;;18.10;68.80;;;;;;5065573;28;20462;-75
2022/05/13 01:51:26;;;;;;;4.03;1.87;;;18.10;68.80;;;;;;5064906;28;20453;-75
2022/05/13 01:53:54;;;;;;;5.67;2.30;;;18.00;68.80;;;;;;5064674;28;20486;-74
2022/05/13 01:56:26;;;;;;;7.00;2.30;;;18.00;68.70;;;;;;5076000;28;20459;-75
2022/05/13 01:58:54;;;;;;;5.30;2.23;;;18.00;68.70;;;;;;5062813;28;20458;-74
2022/05/13 02:01:22;;;;;;;5.57;2.17;;;17.90;68.80;;;;;;5063928;28;20486;-74
2022/05/13 02:03:50;;;;;;;5.13;2.43;;;17.80;68.70;;;;;;5065711;28;21005;-74
2022/05/13 02:06:22;;;;;;;5.10;2.10;;;17.80;68.70;;;;;;5064747;28;20466;-75
2022/05/13 02:08:53;;;;;;;8.53;2.40;;;17.70;68.60;;;;;;5062790;28;20469;-74
2022/05/13 02:11:22;;;;;;;6.40;2.40;;;17.60;68.60;;;;;;5061776;28;20548;-74
2022/05/13 02:13:52;;;;;;;7.13;2.17;;;17.40;68.60;;;;;;5072558;28;20482;-74
2022/05/13 02:16:20;;;;;;;6.97;2.27;;;17.30;68.90;;;;;;5066369;28;20517;-75
2022/05/13 02:18:49;;;;;;;8.50;2.07;;;17.30;68.90;;;;;;5065748;28;20461;-74
2022/05/13 02:21:18;;;;;;;5.07;2.00;;;17.20;69.10;;;;;;5065113;28;21097;-74
2022/05/13 02:23:46;;;;;;;5.90;2.40;;;17.20;69.20;;;;;;5064594;28;20849;-75
2022/05/13 02:26:16;;;;;;;6.50;2.73;;;17.10;69.20;;;;;;5065001;28;20465;-75
2022/05/13 02:28:45;;;;;;;5.33;2.40;;;17.10;69.20;;;;;;5065042;28;20515;-75
2022/05/13 02:31:14;;;;;;;4.87;1.77;;;17.00;69.30;;;;;;5063812;28;20494;-75
2022/05/13 02:33:43;;;;;;;4.57;2.20;;;17.00;69.40;;;;;;5064329;28;20488;-75
2022/05/13 02:36:13;;;;;;;4.40;2.10;;;17.00;69.30;;;;;;5065557;28;20458;-74
2022/05/13 02:38:41;;;;;;;5.53;2.00;;;16.90;69.40;;;;;;5080120;28;20462;-74
2022/05/13 02:41:12;;;;;;;7.13;2.27;;;16.90;69.40;;;;;;5065615;28;20514;-74
2022/05/13 02:43:41;;;;;;;5.00;2.13;;;16.90;69.40;;;;;;5059560;28;20517;-74
2022/05/13 02:46:11;;;;;;;5.60;2.40;;;16.80;69.40;;;;;;5064857;28;20506;-74
2022/05/13 02:48:40;;;;;;;4.13;2.00;;;16.80;69.50;;;;;;5066283;28;20541;-74
2022/05/13 02:51:08;;;;;;;5.80;2.20;;;16.70;69.50;;;;;;5064679;28;20461;-77
2022/05/13 02:53:36;;;;;;;6.47;2.57;;;16.70;69.60;;;;;;5064863;28;20496;-74
2022/05/13 02:56:06;;;;;;;5.77;2.23;;;16.60;69.70;;;;;;5066562;28;20909;-76
2022/05/13 02:58:34;;;;;;;7.00;2.83;;;16.60;69.90;;;;;;5067648;28;20552;-77
2022/05/13 03:01:02;;;;;;;6.80;2.47;;;16.60;70.00;;;;;;5062445;28;20481;-76
2022/05/13 03:03:33;;;;;;;5.50;2.50;;;16.60;70.00;;;;;;5064545;28;20617;-75
2022/05/13 03:06:03;;;;;;;6.10;2.73;;;16.60;69.90;;;;;;5062835;28;21002;-76
2022/05/13 03:08:30;;;;;;;5.93;2.77;;;16.50;69.90;;;;;;5064543;28;20942;-75
2022/05/13 03:10:58;;;;;;;5.80;2.27;;;16.50;70.10;;;;;;5067747;28;20487;-76
2022/05/13 03:13:26;;;;;;;5.43;2.30;;;16.40;70.10;;;;;;5065949;28;20485;-76
2022/05/13 03:15:54;;;;;;;5.70;2.20;;;16.40;70.20;;;;;;5069434;28;20501;-76
2022/05/13 03:18:22;;;;;;;4.10;2.00;;;16.40;70.20;;;;;;5067839;28;20928;-76
2022/05/13 03:20:50;;;;;;;5.07;2.00;;;16.50;70.30;;;;;;5068274;28;20462;-76
2022/05/13 03:23:20;;;;;;;5.43;2.30;;;16.50;70.40;;;;;;5065899;28;20486;-76
2022/05/13 03:25:48;;;;;;;7.10;2.70;;;16.50;70.40;;;;;;5066791;28;20458;-76
2022/05/13 03:28:16;;;;;;;6.10;2.57;;;16.60;70.40;;;;;;5069734;28;20454;-75
2022/05/13 03:30:44;;;;;;;8.67;2.43;;;16.60;70.10;;;;;;5060909;28;20489;-75
2022/05/13 03:33:12;;;;;;;6.43;2.80;;;16.50;69.90;;;;;;5066024;28;20473;-77
2022/05/13 03:35:40;;;;;;;5.90;2.30;;;16.40;69.90;;;;;;5065951;28;20455;-77
2022/05/13 03:38:08;;;;;;;5.10;2.40;;;16.40;70.00;;;;;;5068590;28;20454;-76
2022/05/13 03:40:38;;;;;;;4.50;2.30;;;16.30;70.10;;;;;;5065413;28;20484;-76
2022/05/13 03:43:06;;;;;;;7.07;2.80;;;16.30;70.20;;;;;;5068054;28;20470;-75
2022/05/13 03:45:36;;;;;;;5.07;2.60;;;16.40;70.10;;;;;;5068503;28;20478;-76
2022/05/13 03:48:05;;;;;;;6.50;2.50;;;16.30;70.00;;;;;;5069401;28;20442;-77
2022/05/13 03:50:35;;;;;;;7.87;2.20;;;16.30;69.90;;;;;;5068865;28;20455;-77
2022/05/13 03:53:09;;;;;;;5.20;2.50;;;16.30;69.90;;;;;;5067911;28;20482;-75
2022/05/13 03:55:39;;;;;;;5.00;2.63;;;16.30;70.00;;;;;;5065822;28;20466;-77
2022/05/13 03:58:07;;;;;;;5.53;2.90;;;16.30;70.00;;;;;;5067792;28;20454;-76
2022/05/13 04:00:35;;;;;;;5.83;2.70;;;16.30;70.00;;;;;;5077872;28;21010;-76
2022/05/13 04:03:03;;;;;;;8.97;3.50;;;16.30;69.90;;;;;;5058612;28;20564;-76
2022/05/13 04:11:04;;;;;;;4.90;2.47;;;16.20;69.80;;;;;;5067886;28;20456;-75
2022/05/13 04:16:18;;;;;;;6.10;2.60;;;16.20;69.90;;;;;;5063088;28;21092;-75
2022/05/13 04:18:49;;;;;;;4.83;2.10;;;16.20;69.90;;;;;;5066695;28;21069;-75
2022/05/13 04:21:19;;;;;;;5.57;2.50;;;16.20;70.00;;;;;;5066439;28;20549;-76
2022/05/13 04:23:51;;;;;;;6.10;2.70;;;16.20;69.90;;;;;;5067395;28;20478;-74
2022/05/13 04:26:21;;;;;;;6.70;3.30;;;16.30;69.90;;;;;;5066461;28;20472;-75
2022/05/13 04:28:52;;;;;;;9.20;2.70;;;16.30;70.00;;;;;;5066472;28;20958;-75
2022/05/13 04:31:21;;;;;;;5.30;2.33;;;16.30;70.10;;;;;;5058342;28;20497;-74
2022/05/13 04:33:51;;;;;;;6.00;2.40;;;16.30;70.10;;;;;;5064334;28;20898;-75
2022/05/13 04:36:20;;;;;;;5.10;2.57;;;16.40;70.10;;;;;;5064041;28;20523;-76
2022/05/13 04:38:49;;;;;;;6.97;2.40;;;16.40;70.10;;;;;;5065660;28;20467;-75
2022/05/13 04:44:05;;;;;;;5.00;2.20;;;16.40;70.10;;;;;;5074174;28;20478;-76
2022/05/13 04:46:33;;;;;;;6.20;2.80;;;16.50;70.10;;;;;;5065368;28;20458;-75
2022/05/13 04:49:02;;;;;;;6.07;2.60;;;16.40;70.10;;;;;;5073666;28;20485;-75
2022/05/13 04:51:30;;;;;;;5.13;2.37;;;16.50;70.30;;;;;;5066990;28;20464;-75
2022/05/13 04:53:59;;;;;;;8.30;3.13;;;16.50;70.50;;;;;;5065421;28;20477;-75
2022/05/13 04:56:29;;;;;;;7.10;2.60;;;16.70;70.60;;;;;;5066782;28;20454;-76
2022/05/13 04:58:58;;;;;;;5.60;2.90;;;16.80;70.60;;;;;;5067716;28;20984;-76
2022/05/13 05:01:27;;;;;;;7.50;4.43;;;16.90;70.70;;;;;;5066938;28;20500;-75
2022/05/13 05:03:56;;;;;;;5.83;2.27;;;17.10;70.70;;;;;;5063201;28;20470;-75
2022/05/13 05:06:24;;;;;;;8.90;2.90;;;17.20;70.60;;;;;;5066809;28;20473;-76
2022/05/13 05:08:53;;;;;;;5.13;2.73;;;17.30;70.50;;;;;;5062599;28;20454;-75
2022/05/13 05:11:21;;;;;;;6.23;2.77;;;17.50;70.60;;;;;;5066262;28;20462;-75
2022/05/13 05:13:50;;;;;;;10.73;3.30;;;17.60;70.90;;;;;;5063677;28;20483;-74
2022/05/13 05:16:22;;;;;;;7.20;3.87;;;17.80;71.40;;;;;;5062380;28;21061;-75
2022/05/13 05:18:52;;;;;;;11.37;4.70;;;18.30;71.60;;;;;;5065677;28;20579;-76
2022/05/13 05:21:20;;;;;;;10.80;4.63;;;19.20;70.70;;;;;;5066464;28;20478;-75
2022/05/13 05:23:49;;;;;;;7.33;3.43;;;20.30;68.90;;;;;;5067227;28;20474;-76
2022/05/13 05:26:17;;;;;;;5.90;2.70;;;21.30;67.20;;;;;;5065572;28;20508;-75
2022/05/13 05:28:46;;;;;;;7.70;3.50;;;22.20;65.60;;;;;;5066208;28;20455;-76
2022/05/13 05:31:14;;;;;;;7.60;3.20;;;23.00;64.20;;;;;;5065255;28;20483;-75
2022/05/13 05:33:43;;;;;;;11.83;3.03;;;23.60;63.20;;;;;;5066689;28;20482;-76
2022/05/13 05:36:12;;;;;;;6.20;2.40;;;24.00;62.00;;;;;;5067031;28;20455;-76
2022/05/13 05:38:40;;;;;;;7.77;2.70;;;24.30;61.70;;;;;;5066228;28;20458;-76
2022/05/13 05:41:09;;;;;;;6.53;3.00;;;24.60;61.40;;;;;;5065447;28;20488;-76
2022/05/13 05:43:37;;;;;;;7.63;2.47;;;25.10;61.10;;;;;;5062505;28;20475;-76
2022/05/13 05:46:05;;;;;;;6.47;3.37;;;25.70;60.50;;;;;;5063345;28;20991;-76
2022/05/13 05:48:33;;;;;;;6.57;2.20;;;26.30;60.00;;;;;;5068074;28;20455;-75
2022/05/13 05:51:01;;;;;;;5.73;2.50;;;26.90;59.30;;;;;;5066135;28;20553;-75
2022/05/13 05:59:03;;;;;;;7.43;2.73;;;28.60;56.90;;;;;;5044481;28;20466;-76
2022/05/13 06:01:34;;;;;;;6.97;2.60;;;29.00;55.50;;;;;;5059203;28;20471;-76
2022/05/13 06:04:03;;;;;;;5.47;2.30;;;29.20;55.00;;;;;;5065556;28;20497;-76
2022/05/13 06:06:31;;;;;;;7.40;3.10;;;29.50;54.40;;;;;;5070836;28;20604;-76
2022/05/13 06:09:01;;;;;;;4.57;2.00;;;29.60;53.70;;;;;;5066668;28;20484;-76
2022/05/13 06:11:29;;;;;;;7.00;2.70;;;29.60;52.40;;;;;;5066619;28;20443;-75
2022/05/13 06:13:59;;;;;;;6.13;2.97;;;28.60;51.50;;;;;;5065722;28;20470;-74
2022/05/13 06:16:29;;;;;;;7.70;2.70;;;27.30;51.90;;;;;;5064149;28;20573;-75
2022/05/13 06:19:00;;;;;;;7.90;3.03;;;25.80;52.70;;;;;;5064013;28;21044;-74
2022/05/13 06:21:28;;;;;;;6.17;3.00;;;24.60;53.70;;;;;;5064595;28;20533;-75
2022/05/13 06:23:56;;;;;;;6.80;2.83;;;23.60;54.80;;;;;;5065226;28;20486;-75
2022/05/13 06:26:26;;;;;;;7.07;2.73;;;22.80;55.80;;;;;;5079214;28;20454;-74
2022/05/13 06:28:54;;;;;;;5.20;2.63;;;22.10;56.90;;;;;;5066964;28;20796;-75
2022/05/13 06:31:23;;;;;;;9.03;3.20;;;21.50;57.80;;;;;;5069261;28;20478;-74
2022/05/13 06:33:59;;;;;;;6.77;2.80;;;21.10;58.50;;;;;;5065683;28;20547;-75
2022/05/13 06:36:27;;;;;;;11.60;2.60;;;20.80;59.30;;;;;;5068345;28;20488;-74
2022/05/13 06:38:56;;;;;;;7.07;3.50;;;20.60;59.80;;;;;;5071108;28;21212;-74
2022/05/13 06:41:25;;;;;;;7.03;3.37;;;20.40;60.20;;;;;;5070436;28;20475;-74
2022/05/13 06:43:53;;;;;;;8.50;3.07;;;20.20;60.90;;;;;;5070993;28;20481;-75
2022/05/13 06:46:21;;;;;;;6.10;2.70;;;20.10;61.30;;;;;;5068052;28;20562;-74
2022/05/13 06:48:50;;;;;;;7.90;3.40;;;20.00;62.00;;;;;;5065767;28;20455;-75
2022/05/13 06:51:18;;;;;;;6.80;3.23;;;19.80;62.30;;;;;;5070475;28;20448;-74
2022/05/13 06:53:46;;;;;;;9.20;2.93;;;19.70;63.00;;;;;;5073386;28;20488;-75
2022/05/13 06:56:15;;;;;;;9.03;3.23;;;19.50;63.20;;;;;;5067587;28;20449;-75
2022/05/13 06:58:44;;;;;;;8.33;3.53;;;19.40;63.40;;;;;;5062843;28;20454;-75
2022/05/13 07:01:12;;;;;;;7.00;3.17;;;19.30;63.90;;;;;;5069459;28;20482;-76
2022/05/13 07:03:47;;;;;;;6.83;3.17;;;19.30;64.10;;;;;;5067965;28;20505;-75
2022/05/13 07:06:16;;;;;;;6.77;3.20;;;19.30;64.40;;;;;;5068226;28;20449;-74
2022/05/13 07:08:44;;;;;;;9.13;3.40;;;19.30;64.50;;;;;;5068472;28;20827;-76
2022/05/13 07:11:12;;;;;;;7.83;3.83;;;19.30;64.80;;;;;;5068282;28;20468;-75
2022/05/13 07:13:43;;;;;;;6.50;3.27;;;19.30;64.80;;;;;;5069397;28;20502;-76
2022/05/13 07:16:12;;;;;;;8.53;3.17;;;19.20;65.00;;;;;;5070130;28;21199;-74
2022/05/13 07:18:42;;;;;;;8.33;3.40;;;19.20;65.10;;;;;;5069233;28;20457;-75
2022/05/13 07:21:10;;;;;;;9.73;3.90;;;19.20;65.00;;;;;;5067362;28;20471;-74
2022/05/13 07:23:38;;;;;;;8.80;2.77;;;19.20;65.00;;;;;;5066548;28;20485;-74
2022/05/13 07:26:06;;;;;;;7.70;2.50;;;19.30;65.00;;;;;;5068882;28;20450;-74
2022/05/13 07:28:34;;;;;;;7.03;3.17;;;19.30;64.90;;;;;;5069727;28;20469;-76
2022/05/13 07:31:04;;;;;;;6.60;2.60;;;19.30;64.90;;;;;;5069504;28;20476;-75
2022/05/13 07:33:32;;;;;;;8.00;2.90;;;19.30;64.80;;;;;;5068608;28;20481;-74
2022/05/13 07:36:01;;;;;;;6.70;2.73;;;19.30;64.90;;;;;;5068423;28;20461;-74
2022/05/13 07:38:30;;;;;;;7.43;2.33;;;19.30;64.30;;;;;;5068009;28;20454;-77
2022/05/13 07:41:16;;;;;;;8.30;2.53;;;19.20;64.30;;;;;;5066295;28;20478;-76
2022/05/13 07:43:44;;;;;;;6.73;2.90;;;19.20;64.40;;;;;;5069632;28;21032;-75
2022/05/13 07:46:23;;;;;;;7.80;2.67;;;19.20;64.60;;;;;;5069313;28;21124;-74
2022/05/13 07:48:51;;;;;;;5.23;2.43;;;19.20;64.80;;;;;;5067856;28;20849;-74
2022/05/13 07:51:23;;;;;;;6.57;2.30;;;19.30;64.60;;;;;;5066656;28;20555;-77
2022/05/13 07:53:51;;;;;;;9.50;2.10;;;19.30;64.60;;;;;;5066747;28;20482;-74
2022/05/13 07:56:19;;;;;;;6.13;2.20;;;19.40;64.70;;;;;;5067928;28;20450;-74
2022/05/13 07:58:48;;;;;;;11.73;2.23;;;19.50;64.60;;;;;;5067763;28;20493;-75
2022/05/13 08:01:16;;;;;;;4.60;2.00;;;19.50;64.40;;;;;;5068554;28;20530;-75
2022/05/13 08:03:47;;;;;;;5.10;1.90;;;19.60;64.10;;;;;;5068325;28;20489;-75
2022/05/13 08:06:15;;;;;;;8.43;2.07;;;19.60;64.10;;;;;;5062183;28;20466;-75
2022/05/13 08:08:46;;;;;;;6.20;2.07;;;19.70;64.00;;;;;;5067315;28;20478;-75
2022/05/13 08:11:16;;;;;;;7.10;1.90;;;19.70;63.90;;;;;;5067604;28;20465;-76
2022/05/13 08:13:44;;;;;;;4.00;1.80;;;19.70;63.90;;;;;;5068986;28;20478;-75
2022/05/13 08:16:14;;;;;;;4.93;2.10;;;19.70;63.90;;;;;;5068487;28;20474;-76
2022/05/13 08:18:43;;;;;;;7.57;2.87;;;19.80;63.80;;;;;;5080549;28;20487;-76
2022/05/13 08:21:13;;;;;;;8.50;2.03;;;19.80;63.70;;;;;;5068499;28;20905;-76
2022/05/13 08:23:41;;;;;;;8.93;1.83;;;19.80;63.70;;;;;;5064156;28;20502;-76
2022/05/13 08:26:11;;;;;;;7.80;2.17;;;19.90;63.60;;;;;;5066265;28;21086;-76
2022/05/13 08:28:40;;;;;;;9.70;2.40;;;19.90;63.50;;;;;;5068342;28;20445;-75
2022/05/13 08:31:08;;;;;;;5.90;3.00;;;19.90;63.20;;;;;;5066645;28;20467;-76
2022/05/13 08:33:37;;;;;;;5.53;2.13;;;19.80;62.90;;;;;;5068792;28;20470;-76
2022/05/13 08:36:06;;;;;;;4.70;2.10;;;19.80;62.80;;;;;;5067565;28;20453;-76
2022/05/13 08:38:42;;;;;;;5.07;1.97;;;19.80;62.80;;;;;;5066921;28;20439;-76
2022/05/13 08:41:38;;;;;;;5.93;2.23;;;19.70;62.50;;;;;;5066811;28;21281;-76
2022/05/13 08:44:09;;;;;;;4.60;1.97;;;19.70;61.90;;;;;;5067825;28;20499;-76
2022/05/13 08:46:41;;;;;;;5.33;1.73;;;19.60;62.00;;;;;;5068058;28;20868;-76
2022/05/13 08:49:35;;;;;;;7.80;2.10;;;19.50;62.40;;;;;;5066692;28;20913;-76
2022/05/13 08:55:05;;;;;;;6.53;2.07;;;19.60;62.40;;;;;;5066611;28;20443;-76
2022/05/13 08:57:39;;;;;;;6.27;1.73;;;19.60;62.30;;;;;;5065262;28;20473;-76
2022/05/13 09:00:11;;;;;;;6.53;2.43;;;19.60;62.30;;;;;;5078566;28;20458;-76
2022/05/13 09:02:44;;;;;;;12.00;2.80;;;19.60;62.40;;;;;;5065704;28;20477;-76
2022/05/13 09:05:23;;;;;;;7.23;1.97;;;19.60;62.50;;;;;;5065735;28;20545;-76
2022/05/13 09:07:51;;;;;;;5.33;2.03;;;19.60;62.50;;;;;;5067665;28;20456;-76
2022/05/13 09:10:22;;;;;;;4.47;1.87;;;19.60;62.60;;;;;;5067817;28;20465;-76
2022/05/13 09:12:57;;;;;;;6.67;2.30;;;19.60;62.50;;;;;;5065735;28;20500;-75
2022/05/13 09:15:33;;;;;;;10.97;2.13;;;19.60;62.60;;;;;;5065085;28;20513;-76
2022/05/13 09:18:06;;;;;;;7.13;1.83;;;19.60;62.40;;;;;;5067659;28;20462;-76
2022/05/13 09:20:47;;;;;;;6.83;1.67;;;19.60;61.90;;;;;;5067630;28;20503;-76
2022/05/13 09:23:15;;;;;;;6.27;2.60;;;19.60;62.10;;;;;;5065560;28;20512;-75
2022/05/13 09:26:01;;;;;;;8.17;2.10;;;19.60;62.30;;;;;;5067100;28;20541;-76
2022/05/13 09:28:31;;;;;;;8.30;2.27;;;19.60;62.30;;;;;;5060626;28;20465;-77
2022/05/13 09:31:18;;;;;;;6.83;3.20;;;19.70;62.40;;;;;;5061373;28;20489;-76
2022/05/13 09:34:28;;;;;;;7.13;2.10;;;19.70;62.60;;;;;;5067127;28;20470;-77
2022/05/13 09:37:04;;;;;;;5.97;1.80;;;19.80;62.20;;;;;;5067105;28;20445;-74
2022/05/13 09:39:36;;;;;;;7.90;2.53;;;19.70;62.20;;;;;;5062256;28;20447;-76
2022/05/13 09:42:27;;;;;;;7.33;1.63;;;19.70;62.20;;;;;;5063790;28;20553;-76
2022/05/13 09:45:14;;;;;;;6.60;2.10;;;19.80;62.20;;;;;;5065372;28;20473;-76
2022/05/13 09:47:45;;;;;;;6.80;3.00;;;19.70;62.00;;;;;;5063795;28;20470;-76
2022/05/13 09:50:25;;;;;;;5.30;2.00;;;19.70;61.20;;;;;;5066634;28;20454;-76
2022/05/13 09:52:54;;;;;;;4.60;1.70;;;19.70;61.70;;;;;;5061806;28;20544;-76
2022/05/13 09:55:27;;;;;;;6.10;1.87;;;19.70;61.10;;;;;;5066699;28;20444;-76
2022/05/13 09:58:02;;;;;;;8.67;2.60;;;19.70;61.60;;;;;;5065004;28;20461;-76
2022/05/13 10:00:32;;;;;;;6.93;2.17;;;19.70;61.00;;;;;;5060606;28;20562;-76
2022/05/13 10:03:10;;;;;;;5.10;1.80;;;19.70;61.30;;;;;;5062489;28;20561;-76
2022/05/13 10:05:38;;;;;;;6.90;1.90;;;19.80;61.20;;;;;;5066465;28;20980;-76
2022/05/13 10:08:10;;;;;;;9.03;1.40;;;19.80;61.20;;;;;;5064371;28;20454;-76
2022/05/13 10:16:21;;;;;;;6.20;1.90;;;19.80;59.60;;;;;;5059744;28;20889;-77
2022/05/13 10:18:55;;;;;;;4.03;1.40;;;19.80;59.70;;;;;;5065712;28;20528;-76
2022/05/13 10:21:32;;;;;;;6.30;1.93;;;19.80;60.00;;;;;;5066401;28;20459;-76
2022/05/13 10:24:07;;;;;;;5.40;1.70;;;19.80;60.40;;;;;;5054228;28;20487;-76
2022/05/13 10:26:39;;;;;;;4.07;1.57;;;19.90;60.00;;;;;;5067015;28;20481;-76
2022/05/13 10:29:16;;;;;;;7.00;1.47;;;20.00;59.90;;;;;;5070025;28;20453;-76
2022/05/13 10:31:49;;;;;;;6.63;1.47;;;20.00;59.70;;;;;;5065458;28;20478;-76
2022/05/13 10:34:25;;;;;;;6.20;1.90;;;20.10;59.20;;;;;;5055879;28;20490;-75
2022/05/13 10:36:58;;;;;;;5.20;1.60;;;20.10;59.60;;;;;;5065392;28;20525;-76
2022/05/13 10:39:35;;;;;;;6.63;2.50;;;20.10;59.60;;;;;;5064866;28;20450;-76
2022/05/13 10:42:07;;;;;;;4.10;1.50;;;20.20;59.40;;;;;;5066202;28;20470;-75
2022/05/13 10:44:46;;;;;;;6.37;1.53;;;20.20;59.60;;;;;;5066662;28;20485;-76
2022/05/13 10:47:18;;;;;;;8.50;1.53;;;20.30;59.90;;;;;;5068285;28;20470;-76
2022/05/13 10:49:46;;;;;;;7.40;1.77;;;20.30;59.60;;;;;;5064106;28;20507;-76
2022/05/13 10:52:30;;;;;;;5.30;1.50;;;20.40;59.40;;;;;;5065612;28;20476;-76
2022/05/13 10:55:03;;;;;;;4.37;1.40;;;20.50;59.60;;;;;;5067090;28;20452;-76
2022/05/13 10:57:44;;;;;;;6.60;1.33;;;20.60;59.40;;;;;;5063390;28;20458;-75
2022/05/13 11:00:17;;;;;;;6.83;1.43;;;20.60;58.80;;;;;;5065996;28;20455;-75
2022/05/13 11:03:07;;;;;;;4.80;1.40;;;20.60;57.10;;;;;;5063515;28;20479;-76
2022/05/13 11:05:47;;;;;;;6.00;0.97;;;20.60;58.20;;;;;;5063370;28;20506;-76
2022/05/13 11:08:20;;;;;;;4.93;1.50;;;20.50;57.50;;;;;;5066037;28;20446;-76
2022/05/13 11:10:58;;;;;;;6.73;1.13;;;20.50;58.00;;;;;;5065053;28;20467;-76
2022/05/13 11:13:43;;;;;;;4.40;1.10;;;20.60;57.60;;;;;;5065146;28;20471;-76
2022/05/13 11:16:22;;;;;;;5.77;1.40;;;20.60;57.70;;;;;;5067259;28;20475;-75
2022/05/13 11:18:55;;;;;;;5.00;1.13;;;20.70;57.80;;;;;;5068171;28;20464;-75
2022/05/13 11:21:35;;;;;;;4.33;1.30;;;20.70;57.50;;;;;;5066974;28;20489;-76
2022/05/13 11:27:08;;;;;;;5.30;1.37;;;20.70;56.90;;;;;;5068314;28;20450;-76
2022/05/13 11:29:45;;;;;;;4.87;1.30;;;20.60;56.80;;;;;;5068515;28;20451;-76
2022/05/13 11:32:26;;;;;;;5.27;0.80;;;20.60;56.90;;;;;;5068912;28;20839;-76
2022/05/13 11:35:18;;;;;;;4.03;0.87;;;20.60;56.70;;;;;;5067771;28;20462;-76
2022/05/13 11:37:47;;;;;;;7.57;1.30;;;20.50;55.40;;;;;;5064175;28;20461;-75
2022/05/13 11:40:29;;;;;;;4.70;0.93;;;20.50;55.90;;;;;;5068705;28;20450;-76
2022/05/13 11:43:25;;;;;;;3.30;0.60;;;20.50;55.80;;;;;;5068624;28;20478;-75
2022/05/13 11:46:25;;;;;;;5.43;1.10;;;20.50;55.90;;;;;;5054224;28;20475;-75
2022/05/13 11:48:59;;;;;;;3.63;0.80;;;20.50;55.90;;;;;;5049343;28;20469;-75
2022/05/13 11:51:30;;;;;;;7.70;1.20;;;20.60;55.70;;;;;;5062945;28;20461;-76
2022/05/13 11:54:21;;;;;;;9.50;1.37;;;20.60;55.70;;;;;;5069157;28;20480;-76
2022/05/13 11:56:50;;;;;;;4.30;1.27;;;20.70;55.30;;;;;;5067773;28;20477;-76
2022/05/13 11:59:54;;;;;;;4.13;1.00;;;20.70;55.80;;;;;;5068660;28;20457;-76
2022/05/13 12:02:34;;;;;;;5.40;1.10;;;20.80;56.00;;;;;;5063254;28;20528;-76
2022/05/13 12:05:24;;;;;;;4.00;0.93;;;20.80;55.80;;;;;;5066342;28;20464;-76
2022/05/13 12:07:54;;;;;;;5.17;1.20;;;20.80;55.30;;;;;;5064556;28;20947;-76
2022/05/13 12:10:27;;;;;;;6.03;1.17;;;20.80;55.60;;;;;;5068641;28;20459;-75
2022/05/13 12:13:05;;;;;;;4.40;1.30;;;20.90;55.80;;;;;;5067952;28;20471;-75
2022/05/13 12:15:50;;;;;;;7.27;1.47;;;20.90;55.00;;;;;;5068144;28;20837;-75
2022/05/13 12:18:31;;;;;;;4.13;1.07;;;20.90;55.60;;;;;;5081788;28;20456;-76
2022/05/13 12:21:15;;;;;;;5.37;1.20;;;20.90;55.60;;;;;;5067154;28;20975;-75
2022/05/13 12:23:50;;;;;;;5.23;1.27;;;20.90;55.00;;;;;;5083641;28;20507;-75
2022/05/13 12:26:23;;;;;;;4.10;1.00;;;20.90;55.30;;;;;;5083041;28;20924;-76
2022/05/13 12:29:11;;;;;;;5.60;1.30;;;20.90;55.50;;;;;;5068288;28;20956;-75
2022/05/13 12:31:49;;;;;;;6.23;1.50;;;20.90;55.40;;;;;;5066753;28;20480;-76
2022/05/13 12:40:17;;;;;;;5.60;1.10;;;20.90;55.00;;;;;;5067744;28;20447;-76
2022/05/13 12:42:55;;;;;;;3.90;1.20;;;20.80;55.10;;;;;;5067562;28;20487;-76
2022/05/13 12:45:45;;;;;;;4.70;1.00;;;20.90;55.30;;;;;;5067209;28;20471;-76
2022/05/13 12:48:18;;;;;;;5.30;1.10;;;20.90;55.00;;;;;;5082620;28;20451;-76
2022/05/13 12:50:50;;;;;;;5.40;1.10;;;20.90;55.30;;;;;;5062821;28;20465;-76
2022/05/13 12:53:46;;;;;;;4.40;1.00;;;21.00;54.20;;;;;;5066954;28;20467;-76
2022/05/13 12:56:28;;;;;;;3.93;1.03;;;20.80;54.10;;;;;;5059587;28;20459;-75
2022/05/13 12:59:02;;;;;;;4.27;1.13;;;20.80;55.00;;;;;;5064381;28;20473;-76
2022/05/13 13:01:33;;;;;;;10.67;2.60;;;20.80;55.00;;;;;;5067459;28;20549;-76
2022/05/13 13:04:02;;;;;;;3.43;0.90;;;20.90;55.10;;;;;;5062175;28;20551;-76
2022/05/13 13:06:40;;;;;;;7.70;1.60;;;20.90;55.10;;;;;;5063199;28;20479;-76
2022/05/13 13:09:32;;;;;;;4.03;1.50;;;21.00;55.20;;;;;;5066421;28;20783;-75
2022/05/13 13:12:07;;;;;;;5.20;1.20;;;21.10;55.00;;;;;;5067462;28;20459;-76
2022/05/13 13:15:00;;;;;;;5.23;1.10;;;21.20;54.90;;;;;;5082131;28;20460;-75
2022/05/13 13:17:36;;;;;;;4.10;1.10;;;21.30;54.80;;;;;;5066039;28;20467;-76
2022/05/13 13:20:08;;;;;;;4.40;1.10;;;21.30;54.70;;;;;;5065573;28;20456;-76
2022/05/13 13:22:41;;;;;;;4.53;1.10;;;21.40;54.90;;;;;;5062062;28;20465;-76
2022/05/13 13:25:24;;;;;;;3.57;1.27;;;21.40;54.00;;;;;;5056251;28;20480;-75
2022/05/13 13:27:54;;;;;;;3.80;1.10;;;21.50;54.50;;;;;;5064277;28;20460;-76
2022/05/13 13:30:24;;;;;;;9.00;1.80;;;21.50;54.10;;;;;;5062867;28;20452;-76
2022/05/13 13:32:53;;;;;;;4.33;1.10;;;21.50;54.00;;;;;;5064220;28;20464;-76
2022/05/13 13:35:29;;;;;;;6.23;1.00;;;21.50;53.90;;;;;;5078903;28;20971;-76
2022/05/13 13:37:58;;;;;;;5.13;1.40;;;21.50;53.90;;;;;;5057076;28;21220;-75
2022/05/13 13:40:33;;;;;;;4.23;0.80;;;21.50;54.20;;;;;;5063536;28;20987;-75
2022/05/13 13:43:15;;;;;;;4.87;0.87;;;21.60;54.20;;;;;;5064638;28;20480;-75
2022/05/13 13:45:47;;;;;;;6.93;1.20;;;21.60;54.00;;;;;;5062795;28;20479;-75